Crawford, NE (69339)

12:50 AM MDT on July 31, 2014 (GMT -0600)
Chadron Municipal (KCDR) Elev 3297 ft | 42.84 °N, 103.10 °W | Change Station

Current weather conditions updated 1 hour ago

Partly Cloudy
Partly Cloudy
64 °F
Feels Like 64 °F
N
8
Wind Variable Wind from WSW

Today is forecast to be nearly the same temperature as yesterday.

Today
High -- | Low -- °F
--% Chance of Precip.
Yesterday
High -- | Low -- °F
Precip. -- in
5:44 AM 8:14 PM
Waxing Crescent, 16% visible
Pressure 30.12 in
Visibility 10.0 miles
Clouds Few 9000 ft
Dew Point 51 °F
Humidity 63%
Rainfall 0.00 in
Snow Depth Not available.
UV 0 out of 12
Pollen 4.00 out of 12
Air Quality Not available.
Flu Activity Not available.
METAR KCDR 310453Z AUTO 25007KT 10SM FEW090 18/11 A3017 RMK AO2 SLP197 T01780106

More Conditions Fewer Conditions

Pressure 30.12 in
Visibility 10.0 miles
Clouds Few 9000 ft
Dew Point 51 °F
Humidity 63%
Rainfall 0.00 in
Snow Depth Not available.
UV 0 out of 12
Pollen 4.00 out of 12
Air Quality Not available.
Flu Activity Not available.
METAR KCDR 310453Z AUTO 25007KT 10SM FEW090 18/11 A3017 RMK AO2 SLP197 T01780106

More Conditions Fewer Conditions

10-Day Weather Forecast

Almanac

Astronomy

Jul. 31, 2014 Rise Set
Actual Time 5:44 AM MDT 8:14 PM MDT
Civil Twilight 5:12 AM MDT 8:46 PM MDT
Nautical Twilight 4:32 AM MDT 9:26 PM MDT
Astronomical Twilight 3:47 AM MDT 10:11 PM MDT
Moon 10:21 AM MDT 10:21 PM MDT
Length of Visible Light 15h 34m
Length of Day
14h 30m
Tomorrow will be 2m 11s shorter.
Waxing Crescent, 16% of the Moon is Illuminated
Today
Waxing Crescent
Aug 3
First Quarter
Aug 10
Full
Aug 17
Last Quarter
Aug 25
New

Today's Extremes

State Highs State Lows

Community

WunderPhotos

Upload Photos

1,739,251 photos uploaded!

Nearby

Snow Depth

Station Depth Elevation
No new snow has been reported.

Earthquake Activity

City Distance Mag. Time & Date
No recent earthquake activity has been reported nearby.
Minimum magnitude displayed is 2.5.

Coastal Water Temperatures

Place Temperature
No Stations Reporting

Nearby Weather Stations

Station Location Temp. Dew Point Humidity Wind Precip. Elev Updated Type
RAWS KINGS CANYON NE, Chadron, NE 69 °F 53 °F 57% SW  at  5 mph 0.00 in / hr 4080 ft 11:22 PM MDT MADIS
APRSWXNET Chadron NE , Chadron, NE 66 °F 56 °F 69% SSW  at  0 mph 0.00 in / hr 3366 ft 12:12 AM MDT MADIS
Bill and Corena's Backyard, Chadron, NE 64.2 °F 56 °F 74% SSW  at  0.0 mph 0.00 in / hr 3367 ft 12:47 AM MDT Rapid Fire
KCSR/KBPY Radio, Chadron, NE 67.5 °F 55 °F 65% SW  at  1.0 mph 0.00 in / hr 3386 ft 12:45 AM MDT Normal

Show More Stations Show Fewer Stations